Главная страница
METAR-TAF:

METAR-TAF

Аэропорты :

Триполи, Ливия

широта: 32-54N, долгота: 13-17E, высота над уровнем моря: 11 м

Текущие метеонаблюдения

Эта сводка был подготовлена 27 минут назад, в 13:50 UTC
Ветер 7 Узел от южный
Температура 23°C
Влажность 41%
Давление 1019 hPa
Видимость: 8000 м
Отдельные облака на высоте 2500 фута

METAR: HLLM 151350Z 17007KT 8000 SCT025 23/09 Q1019

Время: 16:17 (14:17 UTC)

Прогноз

Эта сводка был подготовлена 3 часа и 17 минут назад, в 11:00 UTC
Прогноз действительный с 15-го 12 UTC до 16-го 12 UTC
Ветер 10 Узел от юго-восточный
Видимость 10 км и более
небольшая облачность на высоте 2500 фута

TAF: HLLM 151100Z 1512/1612 VRB02KT 9999 FEW025 BECMG1520/1522 14010KT

Метеонаблюдения и прогнозы для более 4000 аэропортов (сводки METAR и TAF).

Имеющиеся станции представлены на карте желтыми и красными точками.

Чтобы увидеть название станции, наведите на нее мышь.

Затем щелкните, чтобы увидеть метеонаблюдения и метеопрогнозы.

Управление картой: чтобы увеличить масштаб, щелкните зеленые кнопки с черным крестиком; чтобы уменьшить масштаб, щелкните зеленую кнопку с тире; для просмотра соседних карт щелкайте зеленые стрелки.


METAR-TAF: